タシュケント の空港の天気 - METARとTAF

タシケント空港 ( UTTT / TAS ) - ウズベキスタン タシュケント
飛行場実況気象(Metar)
観測時間12/10 10:00 UZT (12/10 05:00 UTC)
風向・風速静穏 0m/s
視程4000m
天気現象弱いしゅう雨 もや
全天を覆う雲 雲底高度 730m
気温9℃
湿度93%
気圧1021hPa
METARUTTT 100500Z 00000KT 4000 -SHRA BR OVC024CB 09/08 Q1021 R08L/29//50 NOSIG
過去の天気等 Google飛行場航空写真 Wunderground天気予報

過去48時間のMETAR

飛行場予報(TAF)
発表時間: 12/10 04:00 UZT (12/09 23:00 UTC)
予報対象時間: 10日5時 UZT ~ 11日5時 UZT
風向・風速南西 5m/s
視程4000m
天気現象もや
少しの雲 雲底高度 300m
全天の4割程度の積乱雲 雲底高度 910m
全天の8割程度の雲 雲底高度 3050m
10日5時 UZT ~ 10日9時 UZT に一時的に
風向・風速不定 1m/s
視程500m
天気現象雨 霧
全天の4割程度の雲 雲底高度 90m
10日9時 UZT ~ 10日19時 UZT に一時的に
風向・風速北北西 6m/s
天気現象弱いしゅう雨
全天の4割程度の雲 雲底高度 210m
全天の8割程度の積乱雲 雲底高度 610m
TAF COR UTTT 092300Z 1000/1024 22010KT 4000 BR FEW010 SCT030CB BKN100
TEMPO 1000/1004 VRB02KT 0500 RA FG SCT003
TEMPO 1004/1014 34012KT -SHRA SCT007 BKN020CB